Last 7 Days

Morrison Lane

Hourly Data | America/Los_Angeles
as of 8/12/22 6:04 AM PDT
Date & Time Temp (°F) RH (%) Dew Pt (°F) Wind Spd (mph) Wind Dir (°) Wind Gust (mph) Wind Gst Dir (°) Latest Rain (In) Daily Rain (In) Daily Min Temp (°F) Daily Max Temp (°F)
8/12/22 - 0600 61.1 81 55.2 5.2 W | 260 18.7 W | 264 0.00 0.00 60.3 63.1
8/12/22 - 0500 60.6 84 55.7 3.3 WSW | 246 13.5 W | 274 0.00 0.00 60.3 63.1
8/12/22 - 0400 61.3 82 55.7 5.5 WSW | 247 13.5 WSW | 245 0.00 0.00 60.6 63.1
8/12/22 - 0300 61.3 82 55.7 5.5 WSW | 240 12.4 WSW | 254 0.00 0.00 60.6 63.1
8/12/22 - 0200 62.4 77 55.0 8.0 W | 265 15.8 W | 268 0.00 0.00 61.6 63.1
8/12/22 - 0100 63.0 70 53.1 6.1 WNW | 284 12.7 W | 271 0.00 0.00 61.3 88.8
8/12/22 - 0000 63.0 69 52.9 7.8 SW | 235 16.8 SW | 218 0.00 0.00 61.3 88.8
8/11/22 - 2300 63.6 69 53.1 5.7 S | 188 16.8 SW | 216 0.00 0.00 61.3 88.8
8/11/22 - 2200 65.6 62 52.3 3.0 SSW | 207 9.6 W | 271 0.00 0.00 61.3 88.8
8/11/22 - 2100 67.8 57 52.2 6.6 WSW | 246 14.4 SW | 229 0.00 0.00 61.3 88.8
8/11/22 - 2000 72.5 49 52.3 6.1 SW | 231 16.2 SW | 218 0.00 0.00 61.3 88.8
8/11/22 - 1900 78.7 39 51.3 7.3 SW | 229 17.6 SW | 219 0.00 0.00 61.3 88.8
8/11/22 - 1800 83.4 32 50.1 8.6 SW | 228 18.6 SW | 220 0.00 0.00 61.3 88.8
8/11/22 - 1700 84.0 37 54.9 11.6 SW | 226 23.0 SW | 227 0.00 0.00 61.3 88.8
8/11/22 - 1600 86.1 36 55.8 11.4 SW | 226 18.9 SW | 214 0.00 0.00 61.3 88.8
8/11/22 - 1500 87.6 30 52.8 9.6 WSW | 258 18.1 WNW | 289 0.00 0.00 61.3 88.8
8/11/22 - 1400 86.4 31 52.2 10.0 W | 260 15.8 W | 264 0.00 0.00 61.3 87.8
8/11/22 - 1300 84.1 34 53.0 9.3 WSW | 251 15.9 W | 261 0.00 0.00 61.3 85.5
8/11/22 - 1200 80.8 42 55.4 7.7 SW | 226 14.5 WSW | 252 0.00 0.00 61.3 83.0
8/11/22 - 1100 77.1 49 56.4 6.9 SSW | 212 13.7 SW | 229 0.00 0.00 61.3 78.7
8/11/22 - 1000 74.0 53 55.7 5.8 SW | 218 13.1 SW | 224 0.00 0.00 61.3 75.0
8/11/22 - 0900 69.0 62 55.2 6.5 WSW | 246 13.8 SW | 230 0.00 0.00 61.3 72.8
8/11/22 - 0800 64.2 75 56.2 6.6 WSW | 249 15.2 W | 270 0.00 0.00 61.3 65.8
8/11/22 - 0700 61.8 84 57.0 5.7 WSW | 245 12.8 WSW | 250 0.00 0.00 61.3 63.4
8/11/22 - 0600 62.2 85 57.6 7.5 W | 264 14.6 W | 278 0.00 0.00 61.7 63.4
8/11/22 - 0500 62.3 84 57.6 6.5 W | 270 12.2 W | 270 0.00 0.00 62.0 63.4
8/11/22 - 0400 63.1 81 57.2 5.9 WSW | 248 13.8 W | 273 0.00 0.00 62.6 63.4
8/11/22 - 0300 63.0 82 57.6 5.6 WSW | 256 15.4 SW | 224 0.00 0.00 62.6 63.3
8/11/22 - 0200 62.9 82 57.2 7.4 SW | 234 16.8 SW | 236 0.00 0.00 62.6 63.3
8/11/22 - 0100 63.4 80 57.2 6.5 SW | 236 12.8 SSW | 207 0.00 0.00 57.6 85.7
8/11/22 - 0000 64.3 76 56.6 7.5 SW | 232 14.1 WSW | 246 0.00 0.00 57.6 85.7
8/10/22 - 2300 66.2 67 55.1 4.6 SSW | 202 10.4 SW | 225 0.00 0.00 57.6 85.7
8/10/22 - 2200 70.9 54 53.3 6.1 SW | 227 12.6 W | 260 0.00 0.00 57.6 85.7
8/10/22 - 2100 71.6 52 53.1 2.5 W | 261 12.5 SW | 232 0.00 0.00 57.6 85.7
8/10/22 - 2000 76.4 44 53.0 7.0 WSW | 251 14.2 WSW | 246 0.00 0.00 57.6 85.7
8/10/22 - 1900 80.8 39 53.3 6.7 WSW | 247 13.6 SW | 233 0.00 0.00 57.6 85.7
8/10/22 - 1800 82.8 37 54.0 9.2 SW | 232 17.0 SW | 215 0.00 0.00 57.6 85.7
8/10/22 - 1700 83.6 37 54.9 11.0 SW | 227 18.8 SW | 216 0.00 0.00 57.6 85.7
8/10/22 - 1600 84.7 37 55.4 10.4 SW | 221 19.3 SSW | 213 0.00 0.00 57.6 85.7
8/10/22 - 1500 84.6 37 55.2 9.6 SW | 217 16.9 SW | 225 0.00 0.00 57.6 85.7
8/10/22 - 1400 83.2 39 55.4 9.1 SW | 214 16.0 SSW | 200 0.00 0.00 57.6 84.5
8/10/22 - 1300 80.8 43 56.0 9.3 SW | 217 18.7 SW | 225 0.00 0.00 57.6 81.9
8/10/22 - 1200 79.3 42 54.4 7.5 SW | 234 14.6 SSW | 209 0.00 0.00 57.6 81.1
8/10/22 - 1100 75.2 47 53.5 7.7 WSW | 256 13.2 W | 274 0.00 0.00 57.6 77.9
8/10/22 - 1000 71.1 53 53.1 8.6 WSW | 258 14.4 WSW | 258 0.00 0.00 57.6 73.0
8/10/22 - 0900 67.4 61 53.4 9.1 WSW | 252 14.4 W | 260 0.00 0.00 57.6 69.1
8/10/22 - 0800 64.2 69 53.8 5.4 WSW | 253 12.8 WSW | 241 0.00 0.00 57.6 66.2
8/10/22 - 0700 61.0 77 53.6 7.7 SW | 222 13.2 SW | 228 0.00 0.00 57.6 62.5
8/10/22 - 0600 58.4 85 54.0 4.2 SSW | 201 7.8 SSW | 209 0.00 0.00 57.6 61.5
8/10/22 - 0500 61.1 77 53.7 5.9 WSW | 251 11.2 WSW | 250 0.00 0.00 58.6 61.5
8/10/22 - 0400 60.6 80 54.3 5.4 WSW | 239 11.4 WSW | 258 0.00 0.00 58.6 61.3
8/10/22 - 0300 59.1 86 55.0 3.4 SSW | 209 9.9 SSW | 200 0.00 0.00 58.6 60.7
8/10/22 - 0200 60.2 84 55.4 2.4 WSW | 240 7.3 SW | 234 0.00 0.00 59.7 60.7
8/10/22 - 0100 61.0 83 55.9 4.5 SW | 233 8.9 WSW | 238 0.00 0.00 60.1 84.3
8/10/22 - 0000 62.2 79 55.8 6.7 SW | 235 13.4 SW | 221 0.00 0.00 60.1 84.3
8/9/22 - 2300 63.3 75 55.4 7.0 SW | 225 14.4 SW | 224 0.00 0.00 60.1 84.3
8/9/22 - 2200 64.9 69 54.6 5.2 SW | 214 10.8 SSW | 212 0.00 0.00 60.1 84.3
8/9/22 - 2100 68.0 60 53.4 3.4 SSW | 208 9.3 WSW | 252 0.00 0.00 60.1 84.3
8/9/22 - 2000 72.3 49 52.3 6.6 WSW | 247 18.5 SW | 232 0.00 0.00 60.1 84.3
8/9/22 - 1900 76.0 42 51.4 12.0 WSW | 237 22.1 WSW | 253 0.00 0.00 60.1 84.3
8/9/22 - 1800 79.5 37 50.7 9.6 SW | 232 21.2 SW | 221 0.00 0.00 60.1 84.3
8/9/22 - 1700 82.0 32 49.6 11.7 SW | 228 21.3 SW | 226 0.00 0.00 60.1 84.3
8/9/22 - 1600 83.5 33 51.1 11.0 SW | 235 21.2 SW | 234 0.00 0.00 60.1 84.3
8/9/22 - 1500 83.3 35 52.5 8.5 SW | 230 16.0 SSW | 210 0.00 0.00 60.1 84.3
8/9/22 - 1400 81.6 39 54.4 8.8 SW | 219 16.5 SSW | 198 0.00 0.00 60.1 82.3
8/9/22 - 1300 81.0 39 54.0 7.9 SW | 219 15.3 WSW | 250 0.00 0.00 60.1 81.9
8/9/22 - 1200 79.2 39 52.3 8.1 SW | 229 14.9 SW | 225 0.00 0.00 60.1 80.5
8/9/22 - 1100 75.4 46 53.4 6.8 WSW | 245 14.9 W | 261 0.00 0.00 60.1 77.5
8/9/22 - 1000 70.8 57 54.7 8.5 SW | 219 14.6 SSW | 200 0.00 0.00 60.1 73.3
8/9/22 - 0900 67.5 63 54.6 7.1 SW | 219 12.2 SSW | 212 0.00 0.00 60.1 69.1
8/9/22 - 0800 63.4 72 54.3 7.5 SW | 228 15.1 WSW | 256 0.00 0.00 60.1 65.3
8/9/22 - 0700 61.3 77 54.0 8.2 SW | 225 14.1 WSW | 246 0.00 0.00 60.1 64.1
8/9/22 - 0600 62.6 73 54.0 9.5 WSW | 250 15.8 WSW | 244 0.00 0.00 61.7 64.1
8/9/22 - 0500 63.6 71 54.0 9.4 WSW | 242 16.9 WSW | 257 0.00 0.00 61.7 64.1
8/9/22 - 0400 62.3 76 54.6 9.1 W | 275 16.4 W | 267 0.00 0.00 61.7 64.1
8/9/22 - 0300 62.5 76 54.8 8.7 WNW | 286 16.5 W | 262 0.00 0.00 61.7 64.1
8/9/22 - 0200 63.2 73 54.3 6.5 WSW | 246 15.5 W | 264 0.00 0.00 61.9 64.1
8/9/22 - 0100 64.5 69 54.0 8.0 WSW | 253 18.3 WNW | 283 0.00 0.00 61.6 85.8
8/9/22 - 0000 65.3 65 53.1 7.9 W | 275 16.2 WNW | 288 0.00 0.00 61.6 85.8
8/8/22 - 2300 64.8 65 52.6 4.1 WSW | 248 13.2 WNW | 289 0.00 0.00 61.6 85.8
8/8/22 - 2200 65.3 65 53.4 3.0 WSW | 240 7.8 SW | 232 0.00 0.00 61.6 85.8
8/8/22 - 2100 68.0 59 53.3 6.8 SW | 224 13.6 SW | 216 0.00 0.00 61.6 85.8
8/8/22 - 2000 73.8 47 52.1 7.2 SW | 231 13.0 SW | 228 0.00 0.00 61.6 85.8
8/8/22 - 1900 78.9 38 51.0 9.5 SW | 236 17.4 SW | 230 0.00 0.00 61.6 85.8
8/8/22 - 1800 81.3 34 50.7 10.7 SW | 231 17.9 SW | 222 0.00 0.00 61.6 85.8
8/8/22 - 1700 83.8 33 51.9 11.6 SW | 228 20.3 WSW | 257 0.00 0.00 61.6 85.8
8/8/22 - 1600 84.4 35 53.4 11.1 SW | 228 19.2 SW | 214 0.00 0.00 61.6 85.8
8/8/22 - 1500 85.0 34 53.3 10.1 SW | 225 17.9 WSW | 241 0.00 0.00 61.6 85.8
8/8/22 - 1400 83.6 36 53.9 10.8 SW | 224 19.4 SW | 231 0.00 0.00 61.6 84.6
8/8/22 - 1300 82.7 37 54.1 9.6 SW | 228 17.1 SW | 230 0.00 0.00 61.6 83.8
8/8/22 - 1200 80.0 41 54.2 9.2 WSW | 237 16.2 WSW | 247 0.00 0.00 61.6 81.6
8/8/22 - 1100 76.0 45 53.4 10.0 WSW | 244 18.1 SW | 234 0.00 0.00 61.6 78.6
8/8/22 - 1000 71.8 52 53.1 11.7 WSW | 244 19.9 WSW | 237 0.00 0.00 61.6 73.8
8/8/22 - 0900 68.9 58 53.6 10.6 WSW | 241 20.6 SW | 220 0.00 0.00 61.6 69.9
8/8/22 - 0800 65.8 66 54.0 7.9 WSW | 244 16.7 WSW | 237 0.00 0.00 61.6 67.5
8/8/22 - 0700 62.9 73 54.1 7.1 WSW | 238 14.2 WSW | 240 0.00 0.00 61.6 64.6
8/8/22 - 0600 62.4 74 54.1 7.2 SW | 232 13.1 SW | 229 0.00 0.00 61.6 64.2
8/8/22 - 0500 62.1 75 54.0 10.1 SW | 230 17.0 WSW | 244 0.00 0.00 61.6 64.2
8/8/22 - 0400 62.4 74 54.0 10.3 SW | 235 19.6 SW | 224 0.00 0.00 61.6 64.2
8/8/22 - 0300 62.6 74 54.0 8.0 SW | 235 17.2 WSW | 239 0.00 0.00 61.6 64.2
8/8/22 - 0200 64.0 69 53.7 7.4 WSW | 238 16.1 WSW | 258 0.00 0.00 63.7 64.2
8/8/22 - 0100 63.7 70 53.8 6.1 WSW | 243 12.8 WSW | 237 0.00 0.00 60.0 86.6
8/8/22 - 0000 63.4 70 53.6 5.5 WSW | 239 12.4 W | 268 0.00 0.00 60.0 86.6
8/7/22 - 2300 64.1 67 52.8 3.5 SW | 219 11.4 WSW | 254 0.00 0.00 60.0 86.6
8/7/22 - 2200 66.2 61 52.2 4.1 WSW | 245 10.8 WSW | 249 0.00 0.00 60.0 86.6
8/7/22 - 2100 68.8 54 51.6 3.2 W | 263 11.0 WSW | 245 0.00 0.00 60.0 86.6
8/7/22 - 2000 73.2 46 51.3 5.6 SW | 234 13.3 WSW | 238 0.00 0.00 60.0 86.6
8/7/22 - 1900 78.8 39 51.5 8.4 WSW | 246 16.3 SW | 222 0.00 0.00 60.0 86.6
8/7/22 - 1800 82.2 35 52.2 10.6 SW | 236 19.4 SW | 219 0.00 0.00 60.0 86.6
8/7/22 - 1700 84.3 35 53.4 10.4 SW | 232 17.7 SW | 232 0.00 0.00 60.0 86.6
8/7/22 - 1600 84.2 37 55.1 10.3 SW | 228 17.6 SW | 227 0.00 0.00 60.0 86.6
8/7/22 - 1500 85.5 35 54.5 9.2 SW | 231 16.8 SW | 216 0.00 0.00 60.0 86.6
8/7/22 - 1400 84.8 34 53.1 9.8 WSW | 254 17.5 WSW | 256 0.00 0.00 60.0 86.2
8/7/22 - 1300 81.2 37 52.3 10.8 WSW | 258 17.0 W | 281 0.00 0.00 60.0 83.2
8/7/22 - 1200 77.3 42 52.4 11.2 WSW | 257 19.1 W | 271 0.00 0.00 60.0 79.6
8/7/22 - 1100 72.7 50 52.9 10.8 WSW | 256 18.7 W | 267 0.00 0.00 60.0 74.9
8/7/22 - 1000 68.4 58 53.1 9.9 WSW | 254 17.9 W | 261 0.00 0.00 60.0 70.6
8/7/22 - 0900 64.0 70 53.8 9.6 W | 259 17.2 WSW | 238 0.00 0.00 60.0 66.8
8/7/22 - 0800 61.9 75 54.0 8.7 WSW | 256 18.9 W | 264 0.00 0.00 60.0 64.1
8/7/22 - 0700 60.4 79 53.8 6.9 WSW | 247 14.7 WSW | 257 0.00 0.00 60.0 64.1
8/7/22 - 0600 60.8 76 53.3 6.3 WSW | 252 12.8 WSW | 257 0.00 0.00 60.4 64.1
8/7/22 - 0500 61.4 74 52.9 6.7 W | 263 15.5 WSW | 250 0.00 0.00 61.0 64.1
8/7/22 - 0400 62.2 71 52.8 8.8 WSW | 258 17.3 WSW | 245 0.00 0.00 61.6 64.1
8/7/22 - 0300 63.0 69 52.8 7.6 WSW | 254 15.6 SW | 230 0.00 0.00 61.7 64.1
8/7/22 - 0200 63.2 66 51.9 7.7 WSW | 240 17.8 WSW | 246 0.00 0.00 61.7 64.1
8/7/22 - 0100 63.3 61 49.4 4.1 SW | 230 9.1 WSW | 246 0.00 0.00 61.2 83.1
8/7/22 - 0000 66.0 55 49.4 4.7 W | 262 11.4 W | 267 0.00 0.00 61.2 83.1
8/6/22 - 2300 65.9 57 50.2 2.5 W | 260 11.2 WNW | 296 0.00 0.00 61.2 83.1
8/6/22 - 2200 66.8 57 51.3 2.4 W | 260 7.1 W | 281 0.00 0.00 61.2 83.1
8/6/22 - 2100 69.8 54 52.2 4.9 W | 261 12.0 W | 274 0.00 0.00 61.2 83.1
8/6/22 - 2000 74.4 47 52.7 7.0 W | 266 13.8 W | 273 0.00 0.00 61.2 83.1
8/6/22 - 1900 77.7 46 55.1 8.1 WSW | 238 15.0 SSW | 207 0.00 0.00 61.2 83.1
8/6/22 - 1800 79.4 44 55.8 10.7 SW | 227 18.8 SW | 217 0.00 0.00 61.2 83.1
8/6/22 - 1700 81.1 43 56.4 11.4 SW | 224 18.6 SW | 214 0.00 0.00 61.2 83.1
8/6/22 - 1600 81.7 42 56.7 11.2 SW | 222 18.3 SW | 221 0.00 0.00 61.2 83.1
8/6/22 - 1500 81.4 43 56.8 11.1 SW | 218 17.6 WSW | 239 0.00 0.00 61.2 83.1
8/6/22 - 1400 81.7 41 56.0 9.5 WSW | 237 17.8 SSW | 204 0.00 0.00 61.2 83.1
8/6/22 - 1300 79.6 44 55.6 9.4 WSW | 242 16.5 WSW | 239 0.00 0.00 61.2 80.7
8/6/22 - 1200 76.6 47 55.0 9.1 WSW | 257 17.0 W | 270 0.00 0.00 61.2 79.4
8/6/22 - 1100 72.8 54 55.2 8.4 W | 259 15.6 W | 273 0.00 0.00 61.2 75.4
8/6/22 - 1000 69.0 61 55.0 9.2 W | 262 17.4 W | 265 0.00 0.00 61.2 70.9
8/6/22 - 0900 66.2 68 55.2 9.2 W | 266 15.4 SW | 231 0.00 0.00 61.2 67.8
8/6/22 - 0800 63.8 74 55.3 9.0 W | 266 16.4 W | 278 0.00 0.00 61.2 64.5
8/6/22 - 0700 61.8 79 55.2 6.8 WSW | 254 13.5 WSW | 243 0.00 0.00 61.2 62.9
8/6/22 - 0600 61.4 79 54.8 7.9 WSW | 258 14.2 W | 269 0.00 0.00 61.2 62.9
8/6/22 - 0500 61.9 79 55.3 8.6 W | 268 17.4 W | 272 0.00 0.00 61.5 62.9
8/6/22 - 0400 62.1 79 55.7 5.9 WSW | 257 13.4 WSW | 257 0.00 0.00 61.7 62.9
8/6/22 - 0300 62.4 80 56.0 6.9 W | 262 14.3 W | 261 0.00 0.00 62.2 62.9
8/6/22 - 0200 62.6 80 56.2 5.9 W | 263 12.1 W | 270 0.00 0.00 62.2 62.9
8/6/22 - 0100 62.8 79 56.3 5.0 W | 261 12.1 WSW | 258 0.00 0.00 60.6 85.5
8/6/22 - 0000 63.3 78 56.5 6.9 SW | 234 15.8 W | 259 0.00 0.00 60.6 85.5
8/5/22 - 2300 63.6 80 57.2 6.7 WSW | 238 13.7 SW | 235 0.00 0.00 60.6 85.5
8/5/22 - 2200 63.8 80 57.5 6.2 SW | 234 12.4 SW | 214 0.00 0.00 60.6 85.5
8/5/22 - 2100 65.3 75 57.4 10.3 SW | 227 17.0 WSW | 237 0.00 0.00 60.6 85.5
8/5/22 - 2000 69.7 64 57.1 9.5 SW | 222 17.2 SW | 231 0.00 0.00 60.6 85.5
8/5/22 - 1900 73.7 57 57.5 10.5 SW | 223 18.2 SW | 226 0.00 0.00 60.6 85.5
8/5/22 - 1800 77.5 51 58.2 10.1 SW | 229 17.4 SSW | 210 0.00 0.00 60.6 85.5
8/5/22 - 1700 78.9 50 58.7 11.2 SW | 221 17.8 SW | 215 0.00 0.00 60.6 85.5
8/5/22 - 1600 80.6 48 58.8 10.5 SW | 221 18.3 SW | 224 0.00 0.00 60.6 85.5
8/5/22 - 1500 81.8 46 59.0 9.7 SW | 220 17.4 WSW | 240 0.00 0.00 60.6 85.5
8/5/22 - 1400 84.1 43 59.4 6.7 SW | 221 13.0 SW | 217 0.00 0.00 60.6 85.5
8/5/22 - 1300 81.9 45 58.8 5.8 SW | 223 14.5 W | 259 0.00 0.00 60.6 83.5
8/5/22 - 1200 77.7 49 57.1 6.1 WSW | 248 15.7 NW | 304 0.00 0.00 60.6 79.4
8/5/22 - 1100 73.6 53 55.2 10.4 WNW | 289 17.1 W | 281 0.00 0.00 60.6 75.8
8/5/22 - 1000 69.2 60 54.5 10.7 WNW | 289 17.6 WNW | 291 0.00 0.00 60.6 71.6
8/5/22 - 0900 65.6 67 54.4 10.9 WNW | 285 20.4 WNW | 300 0.00 0.00 60.6 66.6
8/5/22 - 0800 62.7 75 54.5 8.4 W | 274 17.1 W | 281 0.00 0.00 60.6 65.0
8/5/22 - 0700 61.0 78 54.3 7.2 W | 274 17.0 WNW | 286 0.00 0.00 60.6 64.8
Max 87.6 86 59.4 12.0 - 23.0 - 0.00 0.00 63.7 88.8
Avg 70.8 59 54.3 7.8 - 15.4 - 0.00 - - -
Min 58.4 30 49.4 2.4 - 7.1 - 0.00 0.00 57.6 60.7
Total - - - - - - - 0.00 - - -
Tip: Bookmark this page for easy future reference